Welcome to Northern Hawkes Bay. New Zealand.
PWS Header
      nz Flag



Hit Counter


W3C Valid W3C Valid logo


    Wairoa

Select any of the Stations below to visit their websites.










Historic Data from Weather Underground
Select the location of interest below. Wairoa is the default. Please have patience, this Data is slow to load in.
Northern Hawkes Bay Historical Data
Daily Summary for April 29, 2017 Units:  Metric    English   Both
« Previous Day
Next Day »
Daily Weekly Monthly Yearly Custom
  High: Low: Average:
Temperature: 23.3 °C 13.0 °C 17.8 °C
Dew Point: 16.3 °C 9.7 °C 13.7 °C
Humidity: 88% 61% 77%
Wind Speed: 12.2km/h 0.0km/h 2km/h
Wind Gust: 18.3km/h - -
Wind- - South
Pressure: 1013.1 hPa 1003.3 hPa -
Precipitation: 0.0 mm    
Historical Graphs
 
 
Tabular Data for April 29, 2017
Time Temperature Dew Point Pressure Wind Wind Speed Wind Gust Humidity Rainfall Rate (Hourly) solar
00:04 16.0 °C 10.9 °C 1012.8 hPa North 2.6 km/h 11.1 km/h 72% 0.0 mm 0 W/m2
00:24 14.8 °C 10.6 °C 1012.8 hPa Calm     76% 0.0 mm 0 W/m2
00:29 14.4 °C 10.2 °C 1013.1 hPa Calm     76% 0.0 mm 0 W/m2
00:34 14.1 °C 9.7 °C 1012.8 hPa Calm     75% 0.0 mm 0 W/m2
00:39 14.0 °C 9.8 °C 1012.8 hPa Calm     76% 0.0 mm 0 W/m2
00:44 14.1 °C 10.1 °C 1012.8 hPa Calm     77% 0.0 mm 0 W/m2
00:49 14.1 °C 10.1 °C 1012.8 hPa Calm     77% 0.0 mm 0 W/m2
00:54 14.0 °C 10.4 °C 1012.8 hPa North 2.6 km/h 3.5 km/h 79% 0.0 mm 0 W/m2
00:59 13.8 °C 10.6 °C 1012.8 hPa North 1.1 km/h 5.0 km/h 81% 0.0 mm 0 W/m2
01:04 13.6 °C 10.6 °C 1012.8 hPa NNW 2.6 km/h 6.1 km/h 82% 0.0 mm 0 W/m2
01:09 13.3 °C 10.5 °C 1012.8 hPa Calm   6.1 km/h 83% 0.0 mm 0 W/m2
01:14 13.1 °C 10.7 °C 1012.4 hPa NNW 3.5 km/h 8.7 km/h 85% 0.0 mm 0 W/m2
01:19 13.1 °C 10.7 °C 1012.4 hPa NW 1.1 km/h 8.7 km/h 85% 0.0 mm 0 W/m2
01:24 13.0 °C 10.6 °C 1012.4 hPa WNW 3.5 km/h 6.1 km/h 85% 0.0 mm 0 W/m2
01:29 13.2 °C 10.9 °C 1012.4 hPa NW 3.5 km/h 8.7 km/h 86% 0.0 mm 0 W/m2
01:34 13.3 °C 11.0 °C 1012.4 hPa NW 2.6 km/h 8.7 km/h 86% 0.0 mm 0 W/m2
01:39 14.3 °C 12.0 °C 1012.4 hPa North 2.6 km/h 9.7 km/h 86% 0.0 mm 0 W/m2
01:44 15.3 °C 12.4 °C 1012.4 hPa North 7.2 km/h 12.2 km/h 83% 0.0 mm 0 W/m2
01:49 16.1 °C 11.9 °C 1012.1 hPa North 7.2 km/h 14.8 km/h 76% 0.0 mm 0 W/m2
01:54 16.4 °C 11.8 °C 1012.4 hPa North 6.1 km/h 14.8 km/h 74% 0.0 mm 0 W/m2
01:59 16.6 °C 11.7 °C 1012.4 hPa North 9.7 km/h 15.8 km/h 73% 0.0 mm 0 W/m2
02:04 16.5 °C 11.7 °C 1012.4 hPa North 8.7 km/h 15.8 km/h 73% 0.0 mm 0 W/m2
02:09 16.4 °C 11.6 °C 1012.4 hPa North 9.7 km/h 15.8 km/h 73% 0.0 mm 0 W/m2
02:14 16.3 °C 11.4 °C 1012.4 hPa North 7.2 km/h 15.8 km/h 73% 0.0 mm 0 W/m2
02:19 16.3 °C 11.4 °C 1012.4 hPa NNW 8.7 km/h 17.2 km/h 73% 0.0 mm 0 W/m2
02:24 16.2 °C 11.6 °C 1012.4 hPa NW 7.2 km/h 18.3 km/h 74% 0.0 mm 0 W/m2
02:29 16.1 °C 11.4 °C 1012.4 hPa NW 6.1 km/h 18.3 km/h 74% 0.0 mm 0 W/m2
02:34 16.0 °C 11.4 °C 1012.4 hPa Calm   13.4 km/h 74% 0.0 mm 0 W/m2
02:39 15.6 °C 11.2 °C 1012.4 hPa Calm   9.7 km/h 75% 0.0 mm 0 W/m2
02:44 15.3 °C 11.1 °C 1012.1 hPa Calm     76% 0.0 mm 0 W/m2
02:49 15.1 °C 11.1 °C 1012.1 hPa Calm     77% 0.0 mm 0 W/m2
02:54 14.8 °C 11.0 °C 1012.1 hPa Calm     78% 0.0 mm 0 W/m2
02:59 14.7 °C 11.3 °C 1012.1 hPa Calm   3.5 km/h 80% 0.0 mm 0 W/m2
03:04 14.6 °C 11.4 °C 1012.1 hPa NNW 2.6 km/h 5.0 km/h 81% 0.0 mm 0 W/m2
03:09 14.6 °C 11.4 °C 1012.1 hPa Calm   5.0 km/h 81% 0.0 mm 0 W/m2
03:14 14.6 °C 11.6 °C 1012.1 hPa NW 1.1 km/h 5.0 km/h 82% 0.0 mm 0 W/m2
03:19 14.9 °C 11.8 °C 1012.1 hPa North 1.1 km/h 7.2 km/h 82% 0.0 mm 0 W/m2
03:24 15.0 °C 11.8 °C 1012.1 hPa North 1.1 km/h 7.2 km/h 81% 0.0 mm 0 W/m2
03:29 15.0 °C 11.6 °C 1012.1 hPa Calm   6.1 km/h 80% 0.0 mm 0 W/m2
03:34 14.9 °C 11.7 °C 1012.1 hPa Calm   6.1 km/h 81% 0.0 mm 0 W/m2
03:39 14.7 °C 11.5 °C 1011.7 hPa Calm     81% 0.0 mm 0 W/m2
03:44 14.6 °C 11.8 °C 1012.1 hPa North 1.1 km/h 5.0 km/h 83% 0.0 mm 0 W/m2
03:49 14.9 °C 12.2 °C 1011.7 hPa North 5.0 km/h 7.2 km/h 84% 0.0 mm 0 W/m2
03:54 15.6 °C 12.3 °C 1011.7 hPa North 6.1 km/h 11.1 km/h 81% 0.0 mm 0 W/m2
03:59 16.1 °C 12.1 °C 1011.7 hPa North 6.1 km/h 12.2 km/h 77% 0.0 mm 0 W/m2
04:04 16.3 °C 11.9 °C 1011.7 hPa North 7.2 km/h 12.2 km/h 75% 0.0 mm 0 W/m2
04:20 17.1 °C 11.8 °C 1011.4 hPa NNW 11.1 km/h 18.3 km/h 71% 0.0 mm 0 W/m2
04:25 17.4 °C 12.1 °C 1011.4 hPa NNW 12.2 km/h 18.3 km/h 71% 0.0 mm 0 W/m2
04:30 17.5 °C 12.0 °C 1011.4 hPa North 6.1 km/h 18.3 km/h 70% 0.0 mm 0 W/m2
04:35 17.2 °C 11.9 °C 1011.4 hPa NNE 6.1 km/h 15.8 km/h 71% 0.0 mm 0 W/m2
04:40 17.1 °C 11.8 °C 1011.4 hPa North 3.5 km/h 15.8 km/h 71% 0.0 mm 0 W/m2
04:45 17.0 °C 11.7 °C 1011.4 hPa North 3.5 km/h 9.7 km/h 71% 0.0 mm 0 W/m2
04:50 16.8 °C 11.9 °C 1011.7 hPa Calm   9.7 km/h 73% 0.0 mm 0 W/m2
04:55 16.3 °C 11.4 °C 1011.4 hPa Calm   7.2 km/h 73% 0.0 mm 0 W/m2
05:00 15.8 °C 11.4 °C 1011.4 hPa Calm     75% 0.0 mm 0 W/m2
05:20 14.7 °C 11.1 °C 1011.4 hPa Calm     79% 0.0 mm 0 W/m2
05:25 14.6 °C 11.4 °C 1011.4 hPa Calm   3.5 km/h 81% 0.0 mm 0 W/m2
05:30 14.4 °C 11.6 °C 1011.4 hPa Calm   3.5 km/h 83% 0.0 mm 0 W/m2
05:35 14.1 °C 11.4 °C 1011.1 hPa NW 1.1 km/h 6.1 km/h 84% 0.0 mm 0 W/m2
05:40 14.1 °C 11.6 °C 1011.1 hPa NW 2.6 km/h 7.2 km/h 85% 0.0 mm 0 W/m2
05:46 14.0 °C 11.5 °C 1011.4 hPa Calm   7.2 km/h 85% 0.0 mm 0 W/m2
05:51 13.8 °C 11.5 °C 1011.4 hPa Calm   2.6 km/h 86% 0.0 mm 0 W/m2
05:56 13.7 °C 11.4 °C 1011.4 hPa Calm     86% 0.0 mm 0 W/m2
06:01 13.8 °C 11.7 °C 1011.1 hPa Calm     87% 0.0 mm 0 W/m2
06:06 13.8 °C 11.7 °C 1011.1 hPa Calm   3.5 km/h 87% 0.0 mm 0 W/m2
06:11 13.8 °C 11.7 °C 1011.1 hPa NNW 1.1 km/h 6.1 km/h 87% 0.0 mm 0 W/m2
06:16 13.6 °C 11.5 °C 1011.4 hPa NNW 1.1 km/h 6.1 km/h 87% 0.0 mm 0 W/m2
06:21 13.5 °C 11.6 °C 1011.4 hPa Calm   6.1 km/h 88% 0.0 mm 0 W/m2
06:26 13.5 °C 11.6 °C 1011.1 hPa NW 1.1 km/h 5.0 km/h 88% 0.0 mm 0 W/m2
06:31 13.6 °C 11.7 °C 1011.1 hPa NNW 5.0 km/h 8.7 km/h 88% 0.0 mm 0 W/m2
06:36 14.0 °C 12.1 °C 1011.1 hPa North 3.5 km/h 8.7 km/h 88% 0.0 mm 0 W/m2
06:41 14.4 °C 12.3 °C 1011.1 hPa NNW 5.0 km/h 8.7 km/h 87% 0.0 mm 0 W/m2
06:46 14.7 °C 12.4 °C 1011.1 hPa NNW 2.6 km/h 8.7 km/h 86% 0.0 mm 1 W/m2
06:51 15.0 °C 12.3 °C 1011.4 hPa NNW 3.5 km/h 8.7 km/h 84% 0.0 mm 2 W/m2
06:56 15.2 °C 12.3 °C 1011.4 hPa NNW 2.6 km/h 9.7 km/h 83% 0.0 mm 5 W/m2
07:01 15.4 °C 12.3 °C 1011.4 hPa NW 7.2 km/h 9.7 km/h 82% 0.0 mm 10 W/m2
07:06 15.4 °C 12.2 °C 1011.1 hPa NW 5.0 km/h 9.7 km/h 81% 0.0 mm 15 W/m2
07:11 15.3 °C 12.1 °C 1011.4 hPa Calm   9.7 km/h 81% 0.0 mm 24 W/m2
07:16 15.2 °C 12.2 °C 1011.4 hPa Calm   9.7 km/h 82% 0.0 mm 43 W/m2
07:21 15.4 °C 12.3 °C 1011.4 hPa Calm     82% 0.0 mm 87 W/m2
07:26 15.9 °C 12.8 °C 1011.4 hPa Calm     82% 0.0 mm 110 W/m2
07:31 16.8 °C 12.9 °C 1011.7 hPa Calm     78% 0.0 mm 128 W/m2
07:36 17.4 °C 12.7 °C 1011.7 hPa Calm     74% 0.0 mm 146 W/m2
07:41 18.4 °C 14.1 °C 1011.4 hPa Calm     76% 0.0 mm 129 W/m2
07:46 19.0 °C 13.4 °C 1011.7 hPa Calm     70% 0.0 mm 142 W/m2
07:51 19.2 °C 13.4 °C 1011.4 hPa Calm     69% 0.0 mm 134 W/m2
07:56 19.0 °C 13.2 °C 1011.7 hPa Calm     69% 0.0 mm 97 W/m2
08:01 18.2 °C 12.7 °C 1011.7 hPa Calm     70% 0.0 mm 85 W/m2
08:06 17.2 °C 12.1 °C 1011.7 hPa Calm     72% 0.0 mm 84 W/m2
08:11 16.8 °C 12.6 °C 1011.7 hPa Calm     76% 0.0 mm 103 W/m2
08:16 16.8 °C 12.8 °C 1011.7 hPa Calm     77% 0.0 mm 90 W/m2
08:21 16.7 °C 12.8 °C 1012.1 hPa Calm     78% 0.0 mm 87 W/m2
08:26 16.8 °C 13.2 °C 1012.1 hPa Calm     79% 0.0 mm 88 W/m2
08:31 16.8 °C 12.9 °C 1012.1 hPa Calm     78% 0.0 mm 96 W/m2
08:36 17.0 °C 13.2 °C 1012.1 hPa Calm     78% 0.0 mm 199 W/m2
08:41 17.6 °C 13.7 °C 1012.1 hPa Calm     78% 0.0 mm 196 W/m2
08:46 17.8 °C 13.3 °C 1012.1 hPa Calm     75% 0.0 mm 150 W/m2
08:51 17.8 °C 12.9 °C 1011.7 hPa Calm     73% 0.0 mm 150 W/m2
08:56 17.7 °C 13.0 °C 1011.7 hPa Calm     74% 0.0 mm 133 W/m2
09:01 17.6 °C 12.9 °C 1011.7 hPa NNW 1.1 km/h 5.0 km/h 74% 0.0 mm 120 W/m2
09:06 17.4 °C 12.9 °C 1011.7 hPa NNW 1.1 km/h 7.2 km/h 75% 0.0 mm 118 W/m2
09:11 17.4 °C 13.1 °C 1011.7 hPa Calm   7.2 km/h 76% 0.0 mm 125 W/m2
09:16 17.5 °C 13.1 °C 1011.7 hPa Calm   3.5 km/h 75% 0.0 mm 150 W/m2
09:21 17.6 °C 13.3 °C 1011.7 hPa NNW 1.1 km/h 6.1 km/h 76% 0.0 mm 234 W/m2
09:26 17.8 °C 13.5 °C 1012.1 hPa NW 6.1 km/h 9.7 km/h 76% 0.0 mm 188 W/m2
09:31 18.2 °C 14.1 °C 1012.1 hPa NW 3.5 km/h 9.7 km/h 77% 0.0 mm 397 W/m2
09:36 18.9 °C 14.4 °C 1012.1 hPa NNW 2.6 km/h 8.7 km/h 75% 0.0 mm 319 W/m2
09:41 19.6 °C 14.7 °C 1012.1 hPa NW 1.1 km/h 8.7 km/h 73% 0.0 mm 114 W/m2
09:46 19.9 °C 14.7 °C 1012.1 hPa NW 1.1 km/h 7.2 km/h 72% 0.0 mm 146 W/m2
09:51 20.4 °C 14.6 °C 1012.4 hPa NNW 6.1 km/h 8.7 km/h 69% 0.0 mm 197 W/m2
09:56 20.5 °C 14.2 °C 1012.1 hPa North 5.0 km/h 8.7 km/h 67% 0.0 mm 203 W/m2
10:01 20.2 °C 13.9 °C 1012.1 hPa North 2.6 km/h 8.7 km/h 67% 0.0 mm 199 W/m2
10:06 20.4 °C 14.3 °C 1012.1 hPa Calm   7.2 km/h 68% 0.0 mm 183 W/m2
10:11 20.5 °C 14.4 °C 1012.1 hPa Calm   3.5 km/h 68% 0.0 mm 172 W/m2
10:16 20.6 °C 14.5 °C 1012.1 hPa Calm     68% 0.0 mm 181 W/m2
10:21 20.6 °C 14.5 °C 1012.1 hPa Calm     68% 0.0 mm 195 W/m2
10:26 20.7 °C 14.6 °C 1012.1 hPa NNW 2.6 km/h 5.0 km/h 68% 0.0 mm 164 W/m2
10:31 20.5 °C 14.8 °C 1012.1 hPa NNW 1.1 km/h 5.0 km/h 70% 0.0 mm 145 W/m2
10:36 20.3 °C 14.9 °C 1012.1 hPa NW 5.0 km/h 6.1 km/h 71% 0.0 mm 114 W/m2
10:42 19.9 °C 15.2 °C 1012.1 hPa NW 2.6 km/h 7.2 km/h 74% 0.0 mm 75 W/m2
10:47 19.6 °C 15.1 °C 1012.1 hPa WNW 2.6 km/h 7.2 km/h 75% 0.0 mm 93 W/m2
10:52 19.4 °C 15.1 °C 1012.1 hPa Calm   5.0 km/h 76% 0.0 mm 96 W/m2
10:57 19.3 °C 15.0 °C 1012.1 hPa Calm   3.5 km/h 76% 0.0 mm 98 W/m2
11:02 19.4 °C 15.3 °C 1012.1 hPa Calm   3.5 km/h 77% 0.0 mm 115 W/m2
11:07 19.7 °C 15.6 °C 1011.7 hPa Calm   1.1 km/h 77% 0.0 mm 112 W/m2
11:12 19.7 °C 15.6 °C 1011.7 hPa Calm   1.1 km/h 77% 0.0 mm 110 W/m2
11:17 19.7 °C 15.6 °C 1011.7 hPa Calm   1.1 km/h 77% 0.0 mm 135 W/m2
11:22 19.8 °C 15.7 °C 1012.1 hPa Calm     77% 0.0 mm 123 W/m2
11:27 19.8 °C 15.4 °C 1011.7 hPa Calm     76% 0.0 mm 142 W/m2
11:32 20.0 °C 15.4 °C 1011.7 hPa NW 1.1 km/h 5.0 km/h 75% 0.0 mm 227 W/m2
11:37 20.5 °C 15.9 °C 1011.7 hPa NW 2.6 km/h 5.0 km/h 75% 0.0 mm 465 W/m2
11:42 21.3 °C 16.1 °C 1011.7 hPa NW 2.6 km/h 6.1 km/h 72% 0.0 mm 471 W/m2
11:47 22.2 °C 16.3 °C 1011.4 hPa NNW 5.0 km/h 9.7 km/h 69% 0.0 mm 650 W/m2
11:52 23.3 °C 16.1 °C 1011.4 hPa North 6.1 km/h 9.7 km/h 64% 0.0 mm 564 W/m2
11:57 23.3 °C 15.9 °C 1011.4 hPa NNE 5.0 km/h 9.7 km/h 63% 0.0 mm 512 W/m2
12:02 23.3 °C 15.6 °C 1011.4 hPa NNE 5.0 km/h 9.7 km/h 62% 0.0 mm 241 W/m2
12:07 22.9 °C 15.0 °C 1011.1 hPa NNE 6.1 km/h 9.7 km/h 61% 0.0 mm 193 W/m2
12:12 22.4 °C 15.0 °C 1011.1 hPa NNE 3.5 km/h 9.7 km/h 63% 0.0 mm 187 W/m2
12:32 21.5 °C 15.1 °C 1010.7 hPa North 3.5 km/h 9.7 km/h 67% 0.0 mm 134 W/m2
12:37 21.5 °C 15.1 °C 1010.7 hPa North 5.0 km/h 9.7 km/h 67% 0.0 mm 125 W/m2
12:42 21.2 °C 14.8 °C 1010.7 hPa North 8.7 km/h 12.2 km/h 67% 0.0 mm 111 W/m2
12:47 21.0 °C 14.9 °C 1010.7 hPa North 7.2 km/h 17.2 km/h 68% 0.0 mm 92 W/m2
12:52 20.8 °C 15.2 °C 1010.4 hPa North 5.0 km/h 17.2 km/h 70% 0.0 mm 81 W/m2
13:12 20.3 °C 14.4 °C 1010.4 hPa North 8.7 km/h 12.2 km/h 69% 0.0 mm 77 W/m2
13:17 20.3 °C 14.4 °C 1010.0 hPa North 3.5 km/h 11.1 km/h 69% 0.0 mm 69 W/m2
13:22 20.3 °C 14.4 °C 1010.0 hPa NNE 6.1 km/h 11.1 km/h 69% 0.0 mm 61 W/m2
13:26 20.3 °C 14.4 °C 1010.0 hPa North 2.6 km/h 11.1 km/h 69% 0.0 mm 60 W/m2
13:32 20.2 °C 14.3 °C 1010.0 hPa North 3.5 km/h 9.7 km/h 69% 0.0 mm 61 W/m2
13:37 20.2 °C 14.3 °C 1010.0 hPa Calm   9.7 km/h 69% 0.0 mm 64 W/m2
13:42 20.2 °C 14.6 °C 1009.7 hPa NNE 2.6 km/h 8.7 km/h 70% 0.0 mm 64 W/m2
13:48 20.2 °C 14.6 °C 1009.7 hPa North 1.1 km/h 5.0 km/h 70% 0.0 mm 72 W/m2
13:53 20.1 °C 14.4 °C 1009.7 hPa North 1.1 km/h 6.1 km/h 70% 0.0 mm 73 W/m2
13:58 20.1 °C 14.4 °C 1009.7 hPa Calm   6.1 km/h 70% 0.0 mm 66 W/m2
14:03 20.1 °C 14.4 °C 1009.7 hPa Calm   5.0 km/h 70% 0.0 mm 59 W/m2
14:08 20.0 °C 14.6 °C 1009.7 hPa Calm   5.0 km/h 71% 0.0 mm 55 W/m2
14:12 19.9 °C 14.7 °C 1009.4 hPa Calm   6.1 km/h 72% 0.0 mm 52 W/m2
14:18 19.9 °C 14.7 °C 1009.4 hPa Calm   6.1 km/h 72% 0.0 mm 45 W/m2
14:23 19.9 °C 14.9 °C 1009.7 hPa Calm   2.6 km/h 73% 0.0 mm 41 W/m2
14:28 19.8 °C 14.8 °C 1009.4 hPa Calm   1.1 km/h 73% 0.0 mm 39 W/m2
14:33 19.7 °C 14.7 °C 1009.4 hPa Calm   7.2 km/h 73% 0.0 mm 39 W/m2
14:38 19.6 °C 14.7 °C 1009.4 hPa Calm   7.2 km/h 73% 0.0 mm 40 W/m2
14:43 19.7 °C 14.7 °C 1009.4 hPa Calm   6.1 km/h 73% 0.0 mm 40 W/m2
14:47 19.7 °C 14.9 °C 1009.4 hPa Calm   3.5 km/h 74% 0.0 mm 45 W/m2
14:53 19.7 °C 14.7 °C 1009.4 hPa NNE 1.1 km/h 5.0 km/h 73% 0.0 mm 50 W/m2
14:58 19.7 °C 14.7 °C 1009.4 hPa Calm   5.0 km/h 73% 0.0 mm 48 W/m2
15:03 19.7 °C 14.7 °C 1009.4 hPa Calm   3.5 km/h 73% 0.0 mm 60 W/m2
15:08 19.9 °C 14.9 °C 1009.4 hPa Calm     73% 0.0 mm 56 W/m2
15:12 19.9 °C 15.2 °C 1009.4 hPa Calm     74% 0.0 mm 51 W/m2
15:18 19.7 °C 15.2 °C 1009.4 hPa Calm     75% 0.0 mm 40 W/m2
15:23 19.6 °C 15.1 °C 1009.0 hPa Calm   3.5 km/h 75% 0.0 mm 38 W/m2
15:27 19.4 °C 14.9 °C 1009.4 hPa Calm   3.5 km/h 75% 0.0 mm 37 W/m2
15:33 19.3 °C 15.0 °C 1009.4 hPa Calm     76% 0.0 mm 38 W/m2
15:37 19.2 °C 15.1 °C 1009.0 hPa Calm     77% 0.0 mm 47 W/m2
15:42 19.2 °C 15.3 °C 1009.0 hPa Calm     78% 0.0 mm 27 W/m2
15:48 19.2 °C 15.3 °C 1008.7 hPa Calm     78% 0.0 mm 22 W/m2
15:52 19.1 °C 15.4 °C 1008.7 hPa Calm     79% 0.0 mm 25 W/m2
15:58 19.0 °C 15.5 °C 1008.7 hPa Calm     80% 0.0 mm 32 W/m2
16:03 18.8 °C 15.5 °C 1008.7 hPa Calm     81% 0.0 mm 30 W/m2
16:07 18.6 °C 15.3 °C 1008.7 hPa Calm     81% 0.0 mm 25 W/m2
16:13 18.5 °C 15.4 °C 1008.4 hPa Calm     82% 0.0 mm 25 W/m2
16:18 18.4 °C 15.3 °C 1008.7 hPa Calm     82% 0.0 mm 24 W/m2
16:23 18.3 °C 15.4 °C 1008.7 hPa Calm   1.1 km/h 83% 0.0 mm 21 W/m2
16:28 18.3 °C 15.4 °C 1008.7 hPa Calm   2.6 km/h 83% 0.0 mm 15 W/m2
16:32 18.2 °C 15.4 °C 1008.4 hPa Calm   2.6 km/h 84% 0.0 mm 14 W/m2
16:38 18.1 °C 15.4 °C 1008.4 hPa Calm     84% 0.0 mm 13 W/m2
16:44 18.0 °C 15.3 °C 1008.4 hPa Calm     84% 0.0 mm 9 W/m2
16:49 18.0 °C 15.3 °C 1008.4 hPa Calm     84% 0.0 mm 5 W/m2
16:52 17.9 °C 15.0 °C 1008.4 hPa Calm     83% 0.0 mm 5 W/m2
16:57 17.8 °C 15.1 °C 1008.4 hPa Calm     84% 0.0 mm 5 W/m2
17:02 17.7 °C 15.0 °C 1008.4 hPa Calm     84% 0.0 mm 3 W/m2
17:06 17.5 °C 14.9 °C 1008.0 hPa Calm   2.6 km/h 85% 0.0 mm 1 W/m2
17:12 17.5 °C 14.9 °C 1008.0 hPa Calm   2.6 km/h 85% 0.0 mm 0 W/m2
17:16 17.4 °C 14.9 °C 1008.0 hPa Calm   1.1 km/h 85% 0.0 mm 0 W/m2
17:21 17.4 °C 14.9 °C 1008.0 hPa Calm     85% 0.0 mm 0 W/m2
17:26 17.5 °C 14.9 °C 1008.0 hPa Calm   7.2 km/h 85% 0.0 mm 0 W/m2
17:32 18.0 °C 15.4 °C 1007.7 hPa Calm   8.7 km/h 85% 0.0 mm 0 W/m2
17:37 18.1 °C 15.6 °C 1007.7 hPa Calm   8.7 km/h 85% 0.0 mm 0 W/m2
17:41 18.0 °C 15.3 °C 1007.7 hPa Calm     84% 0.0 mm 0 W/m2
17:46 18.0 °C 15.1 °C 1007.3 hPa ENE 3.5 km/h 6.1 km/h 83% 0.0 mm 0 W/m2
17:51 18.1 °C 15.0 °C 1007.3 hPa NE 3.5 km/h 8.7 km/h 82% 0.0 mm 0 W/m2
17:56 18.2 °C 15.1 °C 1007.7 hPa NNE 3.5 km/h 8.7 km/h 82% 0.0 mm 0 W/m2
18:01 18.4 °C 14.9 °C 1007.7 hPa NNE 5.0 km/h 7.2 km/h 80% 0.0 mm 0 W/m2
18:06 18.6 °C 14.7 °C 1007.7 hPa NNE 3.5 km/h 9.7 km/h 78% 0.0 mm 0 W/m2
18:12 18.7 °C 14.8 °C 1007.7 hPa NNE 5.0 km/h 11.1 km/h 78% 0.0 mm 0 W/m2
18:16 18.8 °C 14.7 °C 1007.7 hPa North 7.2 km/h 14.8 km/h 77% 0.0 mm 0 W/m2
18:21 18.8 °C 14.9 °C 1007.7 hPa North 5.0 km/h 14.8 km/h 78% 0.0 mm 0 W/m2
18:26 18.6 °C 14.9 °C 1007.3 hPa North 2.6 km/h 12.2 km/h 79% 0.0 mm 0 W/m2
18:32 18.5 °C 14.8 °C 1007.3 hPa North 8.7 km/h 13.4 km/h 79% 0.0 mm 0 W/m2
18:36 18.6 °C 14.9 °C 1007.3 hPa North 6.1 km/h 13.4 km/h 79% 0.0 mm 0 W/m2
18:41 18.6 °C 14.7 °C 1007.7 hPa North 6.1 km/h 13.4 km/h 78% 0.0 mm 0 W/m2
18:46 18.8 °C 14.7 °C 1007.7 hPa NNE 5.0 km/h 15.8 km/h 77% 0.0 mm 0 W/m2
18:52 18.9 °C 14.6 °C 1007.3 hPa NNE 6.1 km/h 17.2 km/h 76% 0.0 mm 0 W/m2
18:56 18.9 °C 14.8 °C 1007.3 hPa North 6.1 km/h 17.2 km/h 77% 0.0 mm 0 W/m2
19:01 18.9 °C 14.6 °C 1007.3 hPa North 7.2 km/h 12.2 km/h 76% 0.0 mm 0 W/m2
19:06 18.9 °C 14.6 °C 1007.0 hPa North 5.0 km/h 15.8 km/h 76% 0.0 mm 0 W/m2
19:11 18.8 °C 14.5 °C 1007.0 hPa North 3.5 km/h 15.8 km/h 76% 0.0 mm 0 W/m2
19:17 19.1 °C 14.8 °C 1007.3 hPa NE 3.5 km/h 12.2 km/h 76% 0.0 mm 0 W/m2
19:21 18.6 °C 14.5 °C 1007.3 hPa NE 2.6 km/h 11.1 km/h 77% 0.0 mm 0 W/m2
19:26 18.5 °C 14.6 °C 1007.0 hPa NE 1.1 km/h 9.7 km/h 78% 0.0 mm 0 W/m2
19:31 18.5 °C 14.6 °C 1007.0 hPa NNE 1.1 km/h 11.1 km/h 78% 0.0 mm 0 W/m2
19:36 18.7 °C 14.8 °C 1007.0 hPa NNE 5.0 km/h 11.1 km/h 78% 0.0 mm 0 W/m2
19:41 18.4 °C 14.5 °C 1006.7 hPa Calm   11.1 km/h 78% 0.0 mm 0 W/m2
19:47 18.4 °C 14.5 °C 1006.7 hPa Calm   11.1 km/h 78% 0.0 mm 0 W/m2
19:51 18.4 °C 14.5 °C 1006.3 hPa NNE 5.0 km/h 13.4 km/h 78% 0.0 mm 0 W/m2
19:56 18.7 °C 15.0 °C 1006.3 hPa NNE 3.5 km/h 13.4 km/h 79% 0.0 mm 0 W/m2
20:01 18.4 °C 14.7 °C 1006.3 hPa NNE 6.1 km/h 11.1 km/h 79% 0.0 mm 0 W/m2
20:07 18.4 °C 14.7 °C 1006.3 hPa Calm   11.1 km/h 79% 0.0 mm 0 W/m2
20:11 18.4 °C 14.5 °C 1006.3 hPa Calm   8.7 km/h 78% 0.0 mm 0 W/m2
20:16 19.0 °C 15.1 °C 1006.0 hPa Calm     78% 0.0 mm 0 W/m2
20:21 18.4 °C 14.5 °C 1006.3 hPa Calm     78% 0.0 mm 0 W/m2
20:26 18.4 °C 14.5 °C 1006.0 hPa Calm     78% 0.0 mm 0 W/m2
20:31 18.3 °C 14.4 °C 1006.0 hPa Calm     78% 0.0 mm 0 W/m2
20:36 18.3 °C 14.6 °C 1006.0 hPa Calm     79% 0.0 mm 0 W/m2
20:41 18.2 °C 14.5 °C 1006.0 hPa Calm     79% 0.0 mm 0 W/m2
20:46 18.2 °C 14.5 °C 1006.0 hPa Calm     79% 0.0 mm 0 W/m2
20:51 18.2 °C 14.5 °C 1005.6 hPa Calm     79% 0.0 mm 0 W/m2
20:56 18.7 °C 15.0 °C 1006.0 hPa Calm     79% 0.0 mm 0 W/m2
21:01 18.2 °C 14.5 °C 1006.0 hPa Calm     79% 0.0 mm 0 W/m2
21:06 18.2 °C 14.3 °C 1005.6 hPa Calm     78% 0.0 mm 0 W/m2
21:11 18.2 °C 14.5 °C 1005.6 hPa Calm     79% 0.0 mm 0 W/m2
21:16 18.3 °C 14.6 °C 1005.3 hPa Calm     79% 0.0 mm 0 W/m2
21:21 18.2 °C 14.5 °C 1005.6 hPa Calm     79% 0.0 mm 0 W/m2
21:26 18.2 °C 14.5 °C 1005.3 hPa Calm     79% 0.0 mm 0 W/m2
21:31 18.2 °C 14.5 °C 1005.3 hPa Calm     79% 0.0 mm 0 W/m2
21:36 17.7 °C 14.0 °C 1005.3 hPa Calm     79% 0.0 mm 0 W/m2
21:41 18.2 °C 14.5 °C 1005.3 hPa Calm     79% 0.0 mm 0 W/m2
21:46 18.2 °C 14.5 °C 1005.3 hPa Calm     79% 0.0 mm 0 W/m2
21:51 18.3 °C 14.6 °C 1005.0 hPa Calm     79% 0.0 mm 0 W/m2
21:56 18.0 °C 14.3 °C 1005.0 hPa Calm     79% 0.0 mm 0 W/m2
22:01 18.2 °C 14.5 °C 1005.0 hPa Calm     79% 0.0 mm 0 W/m2
22:06 18.2 °C 14.7 °C 1005.0 hPa Calm     80% 0.0 mm 0 W/m2
22:11 18.1 °C 14.8 °C 1005.0 hPa Calm     81% 0.0 mm 0 W/m2
22:16 17.6 °C 14.5 °C 1004.6 hPa Calm     82% 0.0 mm 0 W/m2
22:21 18.2 °C 15.1 °C 1004.6 hPa Calm     82% 0.0 mm 0 W/m2
22:26 18.3 °C 15.0 °C 1004.6 hPa Calm     81% 0.0 mm 0 W/m2
22:31 18.5 °C 15.0 °C 1004.6 hPa Calm     80% 0.0 mm 0 W/m2
22:36 18.6 °C 15.1 °C 1004.3 hPa Calm     80% 0.0 mm 0 W/m2
22:41 18.5 °C 15.0 °C 1004.3 hPa Calm     80% 0.0 mm 0 W/m2
22:46 18.5 °C 14.8 °C 1004.3 hPa Calm     79% 0.0 mm 0 W/m2
22:51 18.5 °C 14.8 °C 1003.9 hPa Calm   3.5 km/h 79% 0.0 mm 0 W/m2
22:56 18.4 °C 14.5 °C 1003.9 hPa NNE 5.0 km/h 9.7 km/h 78% 0.0 mm 0 W/m2
23:01 18.7 °C 14.8 °C 1003.9 hPa NNE 12.2 km/h 15.8 km/h 78% 0.0 mm 0 W/m2
23:06 19.0 °C 14.5 °C 1003.6 hPa North 8.7 km/h 15.8 km/h 75% 0.0 mm 0 W/m2
23:11 19.1 °C 14.6 °C 1003.6 hPa North 3.5 km/h 15.8 km/h 75% 0.0 mm 0 W/m2
23:16 18.7 °C 14.4 °C 1003.6 hPa Calm   14.8 km/h 76% 0.0 mm 0 W/m2
23:21 19.0 °C 14.5 °C 1003.9 hPa NNE 7.2 km/h 12.2 km/h 75% 0.0 mm 0 W/m2
23:26 19.0 °C 14.5 °C 1003.6 hPa North 2.6 km/h 12.2 km/h 75% 0.0 mm 0 W/m2
23:31 19.0 °C 14.5 °C 1003.6 hPa NNE 5.0 km/h 14.8 km/h 75% 0.0 mm 0 W/m2
23:36 18.7 °C 14.4 °C 1003.3 hPa NE 7.2 km/h 14.8 km/h 76% 0.0 mm 0 W/m2
23:41 18.9 °C 14.6 °C 1003.3 hPa NE 7.2 km/h 12.2 km/h 76% 0.0 mm 0 W/m2
23:46 18.9 °C 14.6 °C 1003.3 hPa NE 5.0 km/h 14.8 km/h 76% 0.0 mm 0 W/m2
23:52 18.8 °C 14.3 °C 1003.3 hPa NE 5.0 km/h 14.8 km/h 75% 0.0 mm 0 W/m2
23:57 18.5 °C 14.0 °C 1003.3 hPa NNE 7.2 km/h 14.8 km/h 75% 0.0 mm 0 W/m2
Northern Hawkes Bay. New Zealand Historic Data
Compliments of Weather Underground - 2.25 mb